createdAt,value
2017-10-23T00:00:36.125Z,8.87
2017-10-23T00:01:36.169Z,8.79
2017-10-23T00:02:36.290Z,8.81
2017-10-23T00:03:36.269Z,8.81
2017-10-23T00:04:36.306Z,8.72
2017-10-23T00:05:36.347Z,8.83
2017-10-23T00:06:36.391Z,8.84
2017-10-23T00:07:36.518Z,8.71
2017-10-23T00:08:36.488Z,8.76
2017-10-23T00:09:36.532Z,8.83
2017-10-23T00:10:36.573Z,8.73
2017-10-23T00:11:36.622Z,8.75
2017-10-23T00:12:36.747Z,8.78
2017-10-23T00:13:36.710Z,8.84
2017-10-23T00:14:36.755Z,8.71
2017-10-23T00:15:36.802Z,8.72
2017-10-23T00:16:36.851Z,8.65
2017-10-23T00:17:36.958Z,8.66
2017-10-23T00:18:37.003Z,8.68
2017-10-23T00:19:36.986Z,8.68
2017-10-23T00:20:37.029Z,8.57
2017-10-23T00:21:37.076Z,8.53
2017-10-23T00:22:37.118Z,8.58
2017-10-23T00:23:37.227Z,8.55
2017-10-23T00:24:37.214Z,8.50
2017-10-23T00:25:37.258Z,8.50
2017-10-23T00:26:37.310Z,8.55
2017-10-23T00:27:37.345Z,8.51
2017-10-23T00:28:37.459Z,8.50
2017-10-23T00:29:37.437Z,8.40
2017-10-23T00:30:37.480Z,8.48
2017-10-23T00:31:37.527Z,8.47
2017-10-23T00:32:37.579Z,8.40
2017-10-23T00:33:37.700Z,8.44
2017-10-23T00:34:37.664Z,8.53
2017-10-23T00:35:37.711Z,8.42
2017-10-23T00:36:37.752Z,8.45
2017-10-23T00:37:37.804Z,8.40
2017-10-23T00:38:37.906Z,8.44
2017-10-23T00:39:37.953Z,8.45
2017-10-23T00:40:37.934Z,8.45
2017-10-23T00:41:37.989Z,8.40
2017-10-23T00:42:38.027Z,8.35
2017-10-23T00:43:38.072Z,8.45
2017-10-23T00:44:38.181Z,8.45
2017-10-23T00:45:38.162Z,8.40
2017-10-23T00:46:38.208Z,8.36
2017-10-23T00:47:38.250Z,8.32
2017-10-23T00:48:38.302Z,8.35
2017-10-23T00:49:38.407Z,8.35
2017-10-23T00:50:38.388Z,8.33
2017-10-23T00:51:39.121Z,8.35
2017-10-23T00:52:38.481Z,8.42
2017-10-23T00:53:38.543Z,8.45
2017-10-23T00:54:38.651Z,8.33
2017-10-23T00:55:38.613Z,8.33
2017-10-23T00:56:38.660Z,8.37
2017-10-23T00:57:38.709Z,8.32
2017-10-23T00:58:38.747Z,8.39
2017-10-23T00:59:38.876Z,8.35
2017-10-23T01:00:38.840Z,8.35
2017-10-23T01:01:38.906Z,8.45
2017-10-23T01:02:38.930Z,8.40
2017-10-23T01:03:38.975Z,8.33
2017-10-23T01:04:39.083Z,8.30
2017-10-23T01:05:39.133Z,8.32
2017-10-23T01:06:39.108Z,8.29
2017-10-23T01:07:39.155Z,8.32
2017-10-23T01:08:39.201Z,8.32
2017-10-23T01:09:39.245Z,8.28
2017-10-23T01:10:39.358Z,8.35
2017-10-23T01:11:39.336Z,8.40
2017-10-23T01:12:39.379Z,8.33
2017-10-23T01:13:39.424Z,8.36
2017-10-23T01:14:39.477Z,8.36
2017-10-23T01:15:39.597Z,8.35
2017-10-23T01:16:39.562Z,8.37
2017-10-23T01:17:39.605Z,8.45
2017-10-23T01:18:39.649Z,8.39
2017-10-23T01:19:39.696Z,8.48
2017-10-23T01:20:39.806Z,8.50
2017-10-23T01:21:39.851Z,8.37
2017-10-23T01:22:39.830Z,8.35
2017-10-23T01:23:39.878Z,8.35
2017-10-23T01:24:39.924Z,8.44
2017-10-23T01:25:39.969Z,8.32
2017-10-23T01:26:40.076Z,8.30
2017-10-23T01:27:40.056Z,8.29
2017-10-23T01:28:40.101Z,8.33
2017-10-23T01:29:40.147Z,8.30
2017-10-23T01:30:40.191Z,8.40
2017-10-23T01:31:40.304Z,8.45
2017-10-23T01:32:40.286Z,8.45
2017-10-23T01:33:40.327Z,8.37
2017-10-23T01:34:40.372Z,8.37
2017-10-23T01:35:40.416Z,8.36
2017-10-23T01:36:40.530Z,8.48
2017-10-23T01:37:40.507Z,8.40
2017-10-23T01:38:40.551Z,8.35
2017-10-23T01:39:40.600Z,8.42
2017-10-23T01:40:40.646Z,8.33
2017-10-23T01:41:40.769Z,8.42
2017-10-23T01:42:40.744Z,8.37
2017-10-23T01:43:40.776Z,8.28
2017-10-23T01:44:40.824Z,8.47
2017-10-23T01:45:40.867Z,8.37
2017-10-23T01:46:40.988Z,8.48
2017-10-23T01:47:41.022Z,8.51
2017-10-23T01:48:41.004Z,8.53
2017-10-23T01:49:41.049Z,8.47
2017-10-23T01:50:41.092Z,8.47
2017-10-23T01:51:41.139Z,8.47
2017-10-23T01:52:41.269Z,8.51
2017-10-23T01:53:41.230Z,8.55
2017-10-23T01:54:41.274Z,8.47
2017-10-23T01:55:41.331Z,8.51
2017-10-23T01:56:41.365Z,8.53
2017-10-23T01:57:41.485Z,8.53
2017-10-23T01:58:41.456Z,8.57
2017-10-23T01:59:41.499Z,8.51
2017-10-23T02:00:41.544Z,8.60
2017-10-23T02:01:41.591Z,8.51
2017-10-23T02:02:41.701Z,8.53
2017-10-23T02:03:41.742Z,8.48
2017-10-23T02:04:41.725Z,8.51
2017-10-23T02:05:41.773Z,8.53
2017-10-23T02:06:41.818Z,8.55
2017-10-23T02:07:41.860Z,8.54
2017-10-23T02:08:41.970Z,8.57
2017-10-23T02:09:41.950Z,8.58
2017-10-23T02:10:41.997Z,8.47
2017-10-23T02:11:42.041Z,8.44
2017-10-23T02:12:42.088Z,8.51
2017-10-23T02:13:42.199Z,8.55
2017-10-23T02:14:42.178Z,8.65
2017-10-23T02:15:42.225Z,8.55
2017-10-23T02:16:42.264Z,8.55
2017-10-23T02:17:42.316Z,8.57
2017-10-23T02:18:42.437Z,8.50
2017-10-23T02:19:42.404Z,8.54
2017-10-23T02:20:42.447Z,8.69
2017-10-23T02:21:42.497Z,8.63
2017-10-23T02:22:42.544Z,8.55
2017-10-23T02:23:42.646Z,8.54
2017-10-23T02:24:42.692Z,8.62
2017-10-23T02:25:42.676Z,8.62
2017-10-23T02:26:42.719Z,8.66
2017-10-23T02:27:42.764Z,8.71
2017-10-23T02:28:42.811Z,8.72
2017-10-23T02:29:42.916Z,8.60
2017-10-23T02:30:42.905Z,8.65
2017-10-23T02:31:42.946Z,8.73
2017-10-23T02:32:42.998Z,8.58
2017-10-23T02:33:43.039Z,8.63
2017-10-23T02:34:43.158Z,8.65
2017-10-23T02:35:43.129Z,8.65
2017-10-23T02:36:43.171Z,8.66
2017-10-23T02:37:43.218Z,8.75
2017-10-23T02:38:43.264Z,8.69
2017-10-23T02:39:44.125Z,8.81
2017-10-23T02:40:43.415Z,8.78
2017-10-23T02:41:43.397Z,8.84
2017-10-23T02:42:43.443Z,8.78
2017-10-23T02:43:43.487Z,8.76
2017-10-23T02:44:43.534Z,8.79
2017-10-23T02:45:43.640Z,8.69
2017-10-23T02:46:43.626Z,8.62
2017-10-23T02:47:43.668Z,8.78
2017-10-23T02:48:43.719Z,8.69
2017-10-23T02:49:43.760Z,8.68
2017-10-23T02:50:43.870Z,8.78
2017-10-23T02:51:43.850Z,8.72
2017-10-23T02:52:43.897Z,8.72
2017-10-23T02:53:43.941Z,8.78
2017-10-23T02:54:43.988Z,8.68
2017-10-23T02:55:44.095Z,8.68
2017-10-23T02:56:44.075Z,8.65
2017-10-23T02:57:44.122Z,8.66
2017-10-23T02:58:44.166Z,8.63
2017-10-23T02:59:44.210Z,8.58
2017-10-23T03:00:44.321Z,8.55
2017-10-23T03:01:44.303Z,8.55
2017-10-23T03:02:44.348Z,8.57
2017-10-23T03:03:44.391Z,8.53
2017-10-23T03:04:44.439Z,8.58
2017-10-23T03:05:44.548Z,8.58
2017-10-23T03:06:44.529Z,8.60
2017-10-23T03:07:44.574Z,8.60
2017-10-23T03:08:44.628Z,8.57
2017-10-23T03:09:44.669Z,8.51
2017-10-23T03:10:44.793Z,8.42
2017-10-23T03:11:44.754Z,8.44
2017-10-23T03:12:44.804Z,8.36
2017-10-23T03:13:44.845Z,8.44
2017-10-23T03:14:44.891Z,8.39
2017-10-23T03:15:44.999Z,8.42
2017-10-23T03:16:45.044Z,8.32
2017-10-23T03:17:45.026Z,8.30
2017-10-23T03:18:45.070Z,8.25
2017-10-23T03:19:45.114Z,8.26
2017-10-23T03:20:45.241Z,8.21
2017-10-23T03:21:45.207Z,8.30
2017-10-23T03:22:45.252Z,8.26
2017-10-23T03:23:45.301Z,8.20
2017-10-23T03:24:45.339Z,8.25
2017-10-23T03:25:45.464Z,8.18
2017-10-23T03:26:45.981Z,8.22
2017-10-23T03:27:45.474Z,8.29
2017-10-23T03:28:45.522Z,8.32
2017-10-23T03:29:45.571Z,8.21
2017-10-23T03:30:45.695Z,8.26
2017-10-23T03:31:45.659Z,8.25
2017-10-23T03:32:45.706Z,8.28
2017-10-23T03:33:45.747Z,8.25
2017-10-23T03:34:45.794Z,8.21
2017-10-23T03:35:45.905Z,8.21
2017-10-23T03:36:45.882Z,8.30
2017-10-23T03:37:45.926Z,8.28
2017-10-23T03:38:45.969Z,8.29
2017-10-23T03:39:46.016Z,8.30
2017-10-23T03:40:46.129Z,8.14
2017-10-23T03:41:46.185Z,8.15
2017-10-23T03:42:46.151Z,8.15
2017-10-23T03:43:46.195Z,8.11
2017-10-23T03:44:46.241Z,8.11
2017-10-23T03:45:46.286Z,8.21
2017-10-23T03:46:46.393Z,8.26
2017-10-23T03:47:46.376Z,8.18
2017-10-23T03:48:46.421Z,8.20
2017-10-23T03:49:46.467Z,8.20
2017-10-23T03:50:46.511Z,8.15
2017-10-23T03:51:46.617Z,8.15
2017-10-23T03:52:46.599Z,8.11
2017-10-23T03:53:46.646Z,8.12
2017-10-23T03:54:46.693Z,8.20
2017-10-23T03:55:46.734Z,8.14
2017-10-23T03:56:46.855Z,8.18
2017-10-23T03:57:46.827Z,8.15
2017-10-23T03:58:46.883Z,8.15
2017-10-23T03:59:46.915Z,8.20
2017-10-23T04:00:46.960Z,8.12
2017-10-23T04:01:47.088Z,8.14
2017-10-23T04:02:47.050Z,8.20
2017-10-23T04:03:47.095Z,8.18
2017-10-23T04:04:47.141Z,8.15
2017-10-23T04:05:47.185Z,8.22
2017-10-23T04:06:47.305Z,8.25
2017-10-23T04:07:47.273Z,8.22
2017-10-23T04:08:47.320Z,8.21
2017-10-23T04:09:47.366Z,8.22
2017-10-23T04:10:47.413Z,8.20
2017-10-23T04:11:47.543Z,8.14
2017-10-23T04:12:47.498Z,8.10
2017-10-23T04:13:47.544Z,8.12
2017-10-23T04:14:47.589Z,8.14
2017-10-23T04:15:47.635Z,8.15
2017-10-23T04:16:47.744Z,8.15
2017-10-23T04:17:47.789Z,8.08
2017-10-23T04:18:47.768Z,8.15
2017-10-23T04:19:47.817Z,8.11
2017-10-23T04:20:47.858Z,8.17
2017-10-23T04:21:47.903Z,8.14
2017-10-23T04:22:48.016Z,8.28
2017-10-23T04:23:47.996Z,8.28
2017-10-23T04:24:48.041Z,8.25
2017-10-23T04:25:48.085Z,8.26
2017-10-23T04:26:48.127Z,8.17
2017-10-23T04:27:48.238Z,8.22
2017-10-23T04:28:48.218Z,8.22
2017-10-23T04:29:48.263Z,8.25
2017-10-23T04:30:48.307Z,8.18
2017-10-23T04:31:48.353Z,8.21
2017-10-23T04:32:48.482Z,8.33
2017-10-23T04:33:48.444Z,8.30
2017-10-23T04:34:48.487Z,8.36
2017-10-23T04:35:48.535Z,8.30
2017-10-23T04:36:48.580Z,8.32
2017-10-23T04:37:48.689Z,8.28
2017-10-23T04:38:48.666Z,8.28
2017-10-23T04:39:48.716Z,8.20
2017-10-23T04:40:48.757Z,8.25
2017-10-23T04:41:48.804Z,8.25
2017-10-23T04:42:48.930Z,8.17
2017-10-23T04:43:48.892Z,8.20
2017-10-23T04:44:48.939Z,8.21
2017-10-23T04:45:48.983Z,8.28
2017-10-23T04:46:49.027Z,8.29
2017-10-23T04:47:49.137Z,8.29
2017-10-23T04:48:49.181Z,8.22
2017-10-23T04:49:49.161Z,8.18
2017-10-23T04:50:49.986Z,8.25
2017-10-23T04:51:49.253Z,8.11
2017-10-23T04:52:49.296Z,8.32
2017-10-23T04:53:49.407Z,8.14
2017-10-23T04:54:49.390Z,8.14
2017-10-23T04:55:49.432Z,8.18
2017-10-23T04:56:49.479Z,8.15
2017-10-23T04:57:49.522Z,8.25
2017-10-23T04:58:49.636Z,8.28
2017-10-23T04:59:49.615Z,8.20
2017-10-23T05:00:49.658Z,8.26
2017-10-23T05:01:49.703Z,8.25
2017-10-23T05:02:49.748Z,8.21
2017-10-23T05:03:49.855Z,8.20
2017-10-23T05:04:49.836Z,8.26
2017-10-23T05:05:49.883Z,8.32
2017-10-23T05:06:49.926Z,8.30
2017-10-23T05:07:49.973Z,8.35
2017-10-23T05:08:50.098Z,8.35
2017-10-23T05:09:50.064Z,8.37
2017-10-23T05:10:50.105Z,8.37
2017-10-23T05:11:50.160Z,8.28
2017-10-23T05:12:50.196Z,8.26
2017-10-23T05:13:50.309Z,8.30
2017-10-23T05:14:50.350Z,8.33
2017-10-23T05:15:50.331Z,8.32
2017-10-23T05:16:50.379Z,8.33
2017-10-23T05:17:50.422Z,8.36
2017-10-23T05:18:50.467Z,8.30
2017-10-23T05:19:50.575Z,8.28
2017-10-23T05:20:50.560Z,8.33
2017-10-23T05:21:50.602Z,8.33
2017-10-23T05:22:50.646Z,8.35
2017-10-23T05:23:50.697Z,8.33
2017-10-23T05:24:50.803Z,8.32
2017-10-23T05:25:50.784Z,8.33
2017-10-23T05:26:50.828Z,8.33
2017-10-23T05:27:50.876Z,8.51
2017-10-23T05:28:50.916Z,8.39
2017-10-23T05:29:51.028Z,8.42
2017-10-23T05:30:51.072Z,8.45
2017-10-23T05:31:51.050Z,8.44
2017-10-23T05:32:51.100Z,8.45
2017-10-23T05:33:51.144Z,8.32
2017-10-23T05:34:51.270Z,8.44
2017-10-23T05:35:51.980Z,8.35
2017-10-23T05:36:51.981Z,8.35
2017-10-23T05:37:51.324Z,8.35
2017-10-23T05:38:51.369Z,8.44
2017-10-23T05:39:51.496Z,8.35
2017-10-23T05:40:51.458Z,8.33
2017-10-23T05:41:51.507Z,8.33
2017-10-23T05:42:51.546Z,8.40
2017-10-23T05:43:51.593Z,8.40
2017-10-23T05:44:51.716Z,8.42
2017-10-23T05:45:51.683Z,8.50
2017-10-23T05:46:51.727Z,8.50
2017-10-23T05:47:51.771Z,8.45
2017-10-23T05:48:51.818Z,8.40
2017-10-23T05:49:51.947Z,8.35
2017-10-23T05:50:51.909Z,8.39
2017-10-23T05:51:51.953Z,8.44
2017-10-23T05:52:51.996Z,8.48
2017-10-23T05:53:52.043Z,8.48
2017-10-23T05:54:52.570Z,8.51
2017-10-23T05:55:52.131Z,8.45
2017-10-23T05:56:52.188Z,8.40
2017-10-23T05:57:52.225Z,8.42
2017-10-23T05:58:52.269Z,8.42
2017-10-23T05:59:52.312Z,8.47
2017-10-23T06:00:52.423Z,8.42
2017-10-23T06:01:52.404Z,8.44
2017-10-23T06:02:52.448Z,8.47
2017-10-23T06:03:52.494Z,8.36
2017-10-23T06:04:52.542Z,8.40
2017-10-23T06:05:52.649Z,8.42
2017-10-23T06:06:52.629Z,8.53
2017-10-23T06:07:52.674Z,8.51
2017-10-23T06:08:52.723Z,8.47
2017-10-23T06:09:52.767Z,8.44
2017-10-23T06:10:52.878Z,8.53
2017-10-23T06:11:52.857Z,8.48
2017-10-23T06:12:52.901Z,8.55
2017-10-23T06:13:52.945Z,8.48
2017-10-23T06:14:52.992Z,8.50
2017-10-23T06:15:53.098Z,8.48
2017-10-23T06:16:53.080Z,8.54
2017-10-23T06:17:53.129Z,8.58
2017-10-23T06:18:53.167Z,8.55
2017-10-23T06:19:53.215Z,8.57
2017-10-23T06:20:53.341Z,8.55
2017-10-23T06:21:53.305Z,8.47
2017-10-23T06:22:53.353Z,8.50
2017-10-23T06:23:53.393Z,8.50
2017-10-23T06:24:53.448Z,8.48
2017-10-23T06:25:53.569Z,8.54
2017-10-23T06:26:53.531Z,8.55
2017-10-23T06:27:53.578Z,8.60
2017-10-23T06:28:53.620Z,8.55
2017-10-23T06:29:53.665Z,8.55
2017-10-23T06:30:53.774Z,8.55
2017-10-23T06:31:53.820Z,8.57
2017-10-23T06:32:53.801Z,8.53
2017-10-23T06:33:53.847Z,8.55
2017-10-23T06:34:53.891Z,8.55
2017-10-23T06:35:53.936Z,8.55
2017-10-23T06:36:54.046Z,8.62
2017-10-23T06:37:54.026Z,8.62
2017-10-23T06:38:54.069Z,8.62
2017-10-23T06:39:54.118Z,8.68
2017-10-23T06:40:54.160Z,8.60
2017-10-23T06:41:54.271Z,8.66
2017-10-23T06:42:54.251Z,8.62
2017-10-23T06:43:54.298Z,8.68
2017-10-23T06:44:54.342Z,8.55
2017-10-23T06:45:54.388Z,8.63
2017-10-23T06:46:54.496Z,8.58
2017-10-23T06:47:54.482Z,8.68
2017-10-23T06:48:54.523Z,8.71
2017-10-23T06:49:54.570Z,8.73
2017-10-23T06:50:54.614Z,8.76
2017-10-23T06:51:54.730Z,8.73
2017-10-23T06:52:54.704Z,8.71
2017-10-23T06:53:54.749Z,8.66
2017-10-23T06:54:54.796Z,8.62
2017-10-23T06:55:54.840Z,8.63
2017-10-23T06:56:54.968Z,8.69
2017-10-23T06:57:54.933Z,8.54
2017-10-23T06:58:54.977Z,8.57
2017-10-23T06:59:55.024Z,8.58
2017-10-23T07:00:55.070Z,8.54
2017-10-23T07:01:55.178Z,8.51
2017-10-23T07:02:55.220Z,8.53
2017-10-23T07:03:55.205Z,8.45
2017-10-23T07:04:55.250Z,8.45
2017-10-23T07:05:55.291Z,8.45
2017-10-23T07:06:55.337Z,8.42
2017-10-23T07:07:55.556Z,8.42
2017-10-23T07:08:55.430Z,8.35
2017-10-23T07:09:55.472Z,8.36
2017-10-23T07:10:55.516Z,8.33
2017-10-23T07:11:55.567Z,8.32
2017-10-23T07:12:55.758Z,8.29
2017-10-23T07:13:55.653Z,8.25
2017-10-23T07:14:55.700Z,8.29
2017-10-23T07:15:55.744Z,8.32
2017-10-23T07:16:55.788Z,8.28
2017-10-23T07:17:55.898Z,8.30
2017-10-23T07:18:55.942Z,8.26
2017-10-23T07:19:55.928Z,8.29
2017-10-23T07:20:55.969Z,8.21
2017-10-23T07:21:56.016Z,8.18
2017-10-23T07:22:56.060Z,8.15
2017-10-23T07:23:56.170Z,8.21
2017-10-23T07:24:56.154Z,8.20
2017-10-23T07:25:56.195Z,8.15
2017-10-23T07:26:56.242Z,8.15
2017-10-23T07:27:56.285Z,8.21
2017-10-23T07:28:56.409Z,8.20
2017-10-23T07:29:56.376Z,8.29
2017-10-23T07:30:56.421Z,8.26
2017-10-23T07:31:56.467Z,8.20
2017-10-23T07:32:56.516Z,8.18
2017-10-23T07:33:56.622Z,8.15
2017-10-23T07:34:56.604Z,8.18
2017-10-23T07:35:56.648Z,8.15
2017-10-23T07:36:56.697Z,8.29
2017-10-23T07:37:56.737Z,8.20
2017-10-23T07:38:56.844Z,8.17
2017-10-23T07:39:56.834Z,8.14
2017-10-23T07:40:56.874Z,8.30
2017-10-23T07:41:56.918Z,8.22
2017-10-23T07:42:56.962Z,8.32
2017-10-23T07:43:57.072Z,8.17
2017-10-23T07:44:57.055Z,8.17
2017-10-23T07:45:57.099Z,8.20
2017-10-23T07:46:57.143Z,8.22
2017-10-23T07:47:57.198Z,8.26
2017-10-23T07:48:57.315Z,8.15
2017-10-23T07:49:57.282Z,8.30
2017-10-23T07:50:57.327Z,8.22
2017-10-23T07:51:57.369Z,8.22
2017-10-23T07:52:57.418Z,8.26
2017-10-23T07:53:57.526Z,8.30
2017-10-23T07:54:57.506Z,8.25
2017-10-23T07:55:57.551Z,8.33
2017-10-23T07:56:57.594Z,8.29
2017-10-23T07:57:57.641Z,8.44
2017-10-23T07:58:57.759Z,8.45
2017-10-23T07:59:57.732Z,8.48
2017-10-23T08:00:57.776Z,8.53
2017-10-23T08:01:57.823Z,8.45
2017-10-23T08:02:57.866Z,8.51
2017-10-23T08:03:57.989Z,8.40
2017-10-23T08:04:57.958Z,8.48
2017-10-23T08:05:58.004Z,8.50
2017-10-23T08:06:58.045Z,8.55
2017-10-23T08:07:58.092Z,8.65
2017-10-23T08:08:58.202Z,8.69
2017-10-23T08:09:58.246Z,8.68
2017-10-23T08:10:58.227Z,8.71
2017-10-23T08:11:58.274Z,8.62
2017-10-23T08:12:58.318Z,8.75
2017-10-23T08:13:58.363Z,8.63
2017-10-23T08:14:58.471Z,8.63
2017-10-23T08:15:58.452Z,8.73
2017-10-23T08:16:58.499Z,8.68
2017-10-23T08:17:58.548Z,8.63
2017-10-23T08:18:58.590Z,8.72
2017-10-23T08:19:58.713Z,8.63
2017-10-23T08:20:58.680Z,8.65
2017-10-23T08:21:58.731Z,8.75
2017-10-23T08:22:58.774Z,8.65
2017-10-23T08:23:58.815Z,8.73
2017-10-23T08:24:58.946Z,8.73
2017-10-23T08:25:58.906Z,8.78
2017-10-23T08:26:58.952Z,8.66
2017-10-23T08:27:58.998Z,8.68
2017-10-23T08:28:59.044Z,8.83
2017-10-23T08:29:59.175Z,8.75
2017-10-23T08:30:59.134Z,8.68
2017-10-23T08:31:59.186Z,8.75
2017-10-23T08:32:59.225Z,8.79
2017-10-23T08:33:59.273Z,8.72
2017-10-23T08:34:59.381Z,8.78
2017-10-23T08:35:59.425Z,8.83
2017-10-23T08:36:59.411Z,8.81
2017-10-23T08:37:59.453Z,8.84
2017-10-23T08:38:59.497Z,8.90
2017-10-23T08:39:59.543Z,8.93
2017-10-23T08:40:59.651Z,8.90
2017-10-23T08:41:59.634Z,8.96
2017-10-23T08:42:59.680Z,8.96
2017-10-23T08:43:59.730Z,8.94
2017-10-23T08:44:59.769Z,9.04
2017-10-23T08:45:59.879Z,8.93
2017-10-23T08:46:59.860Z,8.97
2017-10-23T08:47:59.906Z,8.93
2017-10-23T08:48:59.953Z,9.02
2017-10-23T08:49:59.997Z,9.02
2017-10-23T08:51:00.136Z,8.93
2017-10-23T08:52:00.088Z,9.01
2017-10-23T08:53:00.142Z,8.97
2017-10-23T08:54:00.181Z,9.05
2017-10-23T08:55:00.231Z,9.04
2017-10-23T08:56:00.338Z,9.20
2017-10-23T08:57:00.376Z,9.23
2017-10-23T08:58:00.362Z,9.13
2017-10-23T08:59:00.407Z,9.16
2017-10-23T09:00:00.453Z,9.23
2017-10-23T09:01:00.497Z,9.16
2017-10-23T09:02:00.607Z,9.21
2017-10-23T09:03:00.588Z,9.21
2017-10-23T09:04:00.637Z,9.23
2017-10-23T09:05:00.684Z,9.23
2017-10-23T09:06:00.728Z,9.23
2017-10-23T09:07:00.836Z,9.24
2017-10-23T09:08:00.818Z,9.30
2017-10-23T09:09:00.863Z,9.40
2017-10-23T09:10:00.909Z,9.31
2017-10-23T09:11:00.956Z,9.32
2017-10-23T09:12:01.067Z,9.38
2017-10-23T09:13:01.047Z,9.34
2017-10-23T09:14:01.091Z,9.35
2017-10-23T09:15:01.141Z,9.35
2017-10-23T09:16:01.184Z,9.32
2017-10-23T09:17:01.302Z,9.43
2017-10-23T09:18:01.274Z,9.48
2017-10-23T09:19:01.319Z,9.50
2017-10-23T09:20:01.365Z,9.50
2017-10-23T09:21:01.413Z,9.46
2017-10-23T09:22:01.520Z,9.45
2017-10-23T09:23:01.503Z,9.50
2017-10-23T09:24:01.550Z,9.48
2017-10-23T09:25:01.612Z,9.43
2017-10-23T09:26:01.645Z,9.61
2017-10-23T09:27:01.784Z,9.50
2017-10-23T09:28:01.731Z,9.43
2017-10-23T09:29:01.778Z,9.46
2017-10-23T09:30:01.825Z,9.50
2017-10-23T09:31:01.869Z,9.48
2017-10-23T09:32:01.998Z,9.48
2017-10-23T09:33:01.961Z,9.48
2017-10-23T09:34:02.006Z,9.48
2017-10-23T09:35:02.053Z,9.45
2017-10-23T09:36:02.099Z,9.46
2017-10-23T09:37:02.210Z,9.46
2017-10-23T09:38:02.259Z,9.56
2017-10-23T09:39:02.236Z,9.48
2017-10-23T09:40:02.992Z,9.48
2017-10-23T09:41:02.333Z,9.53
2017-10-23T09:42:02.374Z,9.53
2017-10-23T09:43:02.482Z,9.52
2017-10-23T09:44:02.465Z,9.48
2017-10-23T09:45:02.512Z,9.45
2017-10-23T09:46:02.555Z,9.42
2017-10-23T09:47:02.601Z,9.43
2017-10-23T09:48:02.737Z,9.48
2017-10-23T09:49:02.696Z,9.49
2017-10-23T09:50:02.740Z,9.34
2017-10-23T09:51:02.785Z,9.38
2017-10-23T09:52:02.833Z,9.34
2017-10-23T09:53:02.943Z,9.32
2017-10-23T09:54:02.987Z,9.35
2017-10-23T09:55:02.975Z,9.31
2017-10-23T09:56:03.014Z,9.32
2017-10-23T09:57:03.061Z,9.32
2017-10-23T09:58:03.110Z,9.35
2017-10-23T09:59:03.218Z,9.39
2017-10-23T10:00:03.198Z,9.32
2017-10-23T10:01:03.251Z,9.30
2017-10-23T10:02:03.296Z,9.34
2017-10-23T10:03:03.336Z,9.38
2017-10-23T10:04:03.446Z,9.35
2017-10-23T10:05:03.429Z,9.39
2017-10-23T10:06:03.473Z,9.38
2017-10-23T10:07:03.517Z,9.30
2017-10-23T10:08:03.563Z,9.30
2017-10-23T10:09:03.674Z,9.40
2017-10-23T10:10:03.660Z,9.43
2017-10-23T10:11:03.701Z,9.49
2017-10-23T10:12:03.748Z,9.52
2017-10-23T10:13:03.791Z,9.43
2017-10-23T10:14:03.906Z,9.32
2017-10-23T10:15:03.885Z,9.45
2017-10-23T10:16:03.929Z,9.43
2017-10-23T10:17:03.977Z,9.52
2017-10-23T10:18:04.023Z,9.46
2017-10-23T10:19:04.130Z,9.50
2017-10-23T10:20:04.113Z,9.46
2017-10-23T10:21:04.163Z,9.52
2017-10-23T10:22:04.207Z,9.52
2017-10-23T10:23:04.251Z,9.58
2017-10-23T10:24:04.369Z,9.60
2017-10-23T10:25:04.344Z,9.60
2017-10-23T10:26:04.388Z,9.57
2017-10-23T10:27:04.438Z,9.53
2017-10-23T10:28:04.481Z,9.56
2017-10-23T10:29:04.602Z,9.56
2017-10-23T10:30:04.572Z,9.48
2017-10-23T10:31:04.619Z,9.49
2017-10-23T10:32:04.668Z,9.60
2017-10-23T10:33:04.710Z,9.53
2017-10-23T10:34:06.640Z,9.56
2017-10-23T10:35:04.866Z,9.60
2017-10-23T10:36:04.847Z,9.67
2017-10-23T10:37:04.894Z,9.66
2017-10-23T10:38:04.943Z,9.76
2017-10-23T10:39:04.987Z,9.75
2017-10-23T10:40:05.103Z,9.75
2017-10-23T10:41:05.083Z,9.78
2017-10-23T10:42:05.124Z,9.66
2017-10-23T10:43:05.169Z,9.68
2017-10-23T10:44:05.219Z,9.70
2017-10-23T10:45:05.339Z,9.71
2017-10-23T10:46:05.308Z,9.76
2017-10-23T10:47:05.352Z,9.79
2017-10-23T10:48:05.402Z,9.78
2017-10-23T10:49:05.448Z,9.75
2017-10-23T10:50:05.578Z,9.70
2017-10-23T10:51:05.537Z,9.75
2017-10-23T10:52:05.584Z,9.76
2017-10-23T10:53:05.628Z,9.81
2017-10-23T10:54:05.675Z,9.83
2017-10-23T10:55:05.811Z,9.83
2017-10-23T10:56:05.767Z,9.73
2017-10-23T10:57:05.812Z,9.76
2017-10-23T10:58:05.858Z,9.71
2017-10-23T10:59:05.902Z,9.76
2017-10-23T11:00:06.031Z,9.78
2017-10-23T11:01:05.995Z,9.79
2017-10-23T11:02:06.041Z,9.82
2017-10-23T11:03:06.086Z,9.81
2017-10-23T11:04:06.139Z,9.81
2017-10-23T11:05:06.243Z,9.78
2017-10-23T11:06:06.345Z,9.76
2017-10-23T11:07:06.271Z,9.73
2017-10-23T11:08:06.319Z,9.76
2017-10-23T11:09:06.368Z,9.82
2017-10-23T11:10:06.410Z,9.89
2017-10-23T11:11:06.541Z,9.88
2017-10-23T11:12:06.501Z,9.81
2017-10-23T11:13:06.547Z,9.91
2017-10-23T11:14:06.595Z,9.93
2017-10-23T11:15:06.639Z,9.97
2017-10-23T11:16:06.748Z,9.86
2017-10-23T11:17:06.732Z,9.85
2017-10-23T11:18:06.776Z,9.93
2017-10-23T11:19:06.829Z,9.89
2017-10-23T11:20:06.874Z,10.00
2017-10-23T11:21:06.985Z,9.91
2017-10-23T11:22:06.960Z,9.97
2017-10-23T11:23:07.006Z,9.97
2017-10-23T11:24:07.054Z,9.94
2017-10-23T11:25:07.097Z,9.94
2017-10-23T11:26:07.568Z,9.97
2017-10-23T11:27:07.191Z,9.96
2017-10-23T11:28:07.238Z,9.94
2017-10-23T11:29:07.283Z,10.01
2017-10-23T11:30:07.328Z,10.04
2017-10-23T11:31:07.438Z,10.01
2017-10-23T11:32:07.421Z,10.09
2017-10-23T11:33:07.468Z,10.17
2017-10-23T11:34:07.517Z,10.12
2017-10-23T11:35:07.559Z,10.14
2017-10-23T11:36:07.672Z,10.18
2017-10-23T11:37:07.652Z,10.18
2017-10-23T11:38:07.701Z,10.21
2017-10-23T11:39:07.748Z,10.15
2017-10-23T11:40:07.815Z,10.15
2017-10-23T11:41:07.916Z,10.15
2017-10-23T11:42:07.889Z,10.21
2017-10-23T11:43:07.930Z,10.24
2017-10-23T11:44:07.982Z,10.28
2017-10-23T11:45:08.023Z,10.26
2017-10-23T11:46:08.151Z,10.30
2017-10-23T11:47:08.114Z,10.15
2017-10-23T11:48:08.163Z,10.14
2017-10-23T11:49:08.207Z,10.15
2017-10-23T11:50:08.253Z,10.18
2017-10-23T11:51:08.385Z,10.09
2017-10-23T11:52:08.344Z,10.01
2017-10-23T11:53:08.391Z,10.09
2017-10-23T11:54:08.444Z,10.10
2017-10-23T11:55:08.487Z,10.07
2017-10-23T11:56:08.597Z,10.15
2017-10-23T11:57:08.581Z,10.21
2017-10-23T11:58:08.621Z,10.24
2017-10-23T11:59:08.668Z,10.30
2017-10-23T12:00:08.718Z,10.24
2017-10-23T12:01:08.852Z,10.30
2017-10-23T12:02:08.811Z,10.28
2017-10-23T12:03:08.852Z,10.33
2017-10-23T12:04:08.900Z,10.32
2017-10-23T12:05:08.946Z,10.25
2017-10-23T12:06:09.070Z,10.34
2017-10-23T12:07:09.036Z,10.36
2017-10-23T12:08:09.086Z,10.42
2017-10-23T12:09:09.130Z,10.37
2017-10-23T12:10:09.177Z,10.36
2017-10-23T12:11:09.314Z,10.33
2017-10-23T12:12:09.267Z,10.39
2017-10-23T12:13:09.314Z,10.36
2017-10-23T12:14:09.361Z,10.47
2017-10-23T12:15:09.421Z,10.42
2017-10-23T12:16:09.520Z,10.46
2017-10-23T12:17:09.501Z,10.42
2017-10-23T12:18:09.548Z,10.51
2017-10-23T12:19:09.598Z,10.51
2017-10-23T12:20:09.638Z,10.52
2017-10-23T12:21:09.772Z,10.46
2017-10-23T12:22:09.734Z,10.51
2017-10-23T12:23:09.775Z,10.47
2017-10-23T12:24:09.821Z,10.46
2017-10-23T12:25:09.871Z,10.55
2017-10-23T12:26:09.999Z,10.53
2017-10-23T12:27:09.963Z,10.59
2017-10-23T12:28:10.011Z,10.62
2017-10-23T12:29:10.055Z,10.63
2017-10-23T12:30:10.102Z,10.59
2017-10-23T12:31:10.210Z,10.60
2017-10-23T12:32:10.259Z,10.65
2017-10-23T12:33:10.242Z,10.65
2017-10-23T12:34:10.291Z,10.80
2017-10-23T12:35:10.335Z,10.76
2017-10-23T12:36:10.381Z,10.68
2017-10-23T12:37:10.507Z,10.70
2017-10-23T12:38:10.473Z,10.73
2017-10-23T12:39:10.516Z,10.73
2017-10-23T12:40:10.564Z,10.77
2017-10-23T12:41:10.615Z,10.80
2017-10-23T12:42:10.782Z,10.74
2017-10-23T12:43:10.706Z,10.73
2017-10-23T12:44:10.750Z,10.76
2017-10-23T12:45:10.800Z,10.74
2017-10-23T12:46:10.844Z,10.81
2017-10-23T12:47:10.954Z,10.80
2017-10-23T12:48:10.944Z,10.74
2017-10-23T12:49:10.986Z,10.77
2017-10-23T12:50:11.030Z,10.71
2017-10-23T12:51:11.077Z,10.86
2017-10-23T12:52:11.187Z,10.77
2017-10-23T12:53:11.173Z,10.78
2017-10-23T12:54:11.217Z,10.83
2017-10-23T12:55:11.261Z,10.78
2017-10-23T12:56:11.307Z,10.73
2017-10-23T12:57:11.442Z,10.74
2017-10-23T12:58:11.401Z,10.73
2017-10-23T12:59:11.452Z,10.73
2017-10-23T13:00:11.498Z,10.74
2017-10-23T13:01:11.541Z,10.63
2017-10-23T13:02:11.652Z,10.63
2017-10-23T13:03:11.701Z,10.71
2017-10-23T13:04:11.681Z,10.70
2017-10-23T13:05:11.728Z,10.63
2017-10-23T13:06:11.774Z,10.68
2017-10-23T13:07:11.823Z,10.62
2017-10-23T13:08:11.932Z,10.60
2017-10-23T13:09:11.917Z,10.56
2017-10-23T13:10:11.961Z,10.58
2017-10-23T13:11:12.011Z,10.58
2017-10-23T13:12:12.055Z,10.62
2017-10-23T13:13:12.170Z,10.53
2017-10-23T13:14:12.151Z,10.53
2017-10-23T13:15:12.198Z,10.63